sensor_id;sensor_type;location;lat;lon;timestamp;P1;durP1;ratioP1;P2;durP2;ratioP2
4821;SDS011;2425;47.794;13.068;2024-01-10T00:00:38;12.67;;;6.50;;
4821;SDS011;2425;47.794;13.068;2024-01-10T00:03:05;16.93;;;7.00;;
4821;SDS011;2425;47.794;13.068;2024-01-10T00:05:32;7.10;;;6.40;;
4821;SDS011;2425;47.794;13.068;2024-01-10T00:07:58;16.83;;;6.70;;
4821;SDS011;2425;47.794;13.068;2024-01-10T00:10:25;9.93;;;7.00;;
4821;SDS011;2425;47.794;13.068;2024-01-10T00:12:52;11.00;;;6.90;;
4821;SDS011;2425;47.794;13.068;2024-01-10T00:15:20;7.13;;;6.43;;
4821;SDS011;2425;47.794;13.068;2024-01-10T00:17:47;7.50;;;6.60;;
4821;SDS011;2425;47.794;13.068;2024-01-10T00:20:14;7.87;;;6.10;;
4821;SDS011;2425;47.794;13.068;2024-01-10T00:22:40;7.80;;;7.00;;
4821;SDS011;2425;47.794;13.068;2024-01-10T00:25:07;7.40;;;6.70;;
4821;SDS011;2425;47.794;13.068;2024-01-10T00:27:34;7.20;;;6.50;;
4821;SDS011;2425;47.794;13.068;2024-01-10T00:30:01;7.30;;;6.60;;
4821;SDS011;2425;47.794;13.068;2024-01-10T00:32:29;7.77;;;6.97;;
4821;SDS011;2425;47.794;13.068;2024-01-10T00:34:56;6.90;;;6.20;;
4821;SDS011;2425;47.794;13.068;2024-01-10T00:37:22;10.47;;;5.90;;
4821;SDS011;2425;47.794;13.068;2024-01-10T00:39:49;6.87;;;5.90;;
4821;SDS011;2425;47.794;13.068;2024-01-10T00:42:16;6.50;;;5.90;;
4821;SDS011;2425;47.794;13.068;2024-01-10T00:44:43;6.77;;;6.17;;
4821;SDS011;2425;47.794;13.068;2024-01-10T00:47:09;10.73;;;7.13;;
4821;SDS011;2425;47.794;13.068;2024-01-10T00:49:38;7.70;;;7.00;;
4821;SDS011;2425;47.794;13.068;2024-01-10T00:52:05;7.83;;;6.07;;
4821;SDS011;2425;47.794;13.068;2024-01-10T00:54:31;9.50;;;5.73;;
4821;SDS011;2425;47.794;13.068;2024-01-10T00:56:58;6.97;;;6.27;;
4821;SDS011;2425;47.794;13.068;2024-01-10T00:59:25;7.13;;;6.30;;
4821;SDS011;2425;47.794;13.068;2024-01-10T01:01:52;5.80;;;5.10;;
4821;SDS011;2425;47.794;13.068;2024-01-10T01:04:18;6.63;;;5.87;;
4821;SDS011;2425;47.794;13.068;2024-01-10T01:06:47;6.80;;;6.10;;
4821;SDS011;2425;47.794;13.068;2024-01-10T01:09:14;7.40;;;6.70;;
4821;SDS011;2425;47.794;13.068;2024-01-10T01:11:40;6.43;;;5.83;;
4821;SDS011;2425;47.794;13.068;2024-01-10T01:14:07;7.50;;;6.10;;
4821;SDS011;2425;47.794;13.068;2024-01-10T01:16:34;7.07;;;6.50;;
4821;SDS011;2425;47.794;13.068;2024-01-10T01:19:01;6.87;;;6.07;;
4821;SDS011;2425;47.794;13.068;2024-01-10T01:21:27;6.57;;;5.97;;
4821;SDS011;2425;47.794;13.068;2024-01-10T01:23:55;6.53;;;5.93;;
4821;SDS011;2425;47.794;13.068;2024-01-10T01:26:22;6.57;;;5.97;;
4821;SDS011;2425;47.794;13.068;2024-01-10T01:28:49;7.03;;;6.33;;
4821;SDS011;2425;47.794;13.068;2024-01-10T01:31:16;5.97;;;5.50;;
4821;SDS011;2425;47.794;13.068;2024-01-10T01:33:43;8.53;;;6.13;;
4821;SDS011;2425;47.794;13.068;2024-01-10T01:36:09;7.43;;;6.50;;
4821;SDS011;2425;47.794;13.068;2024-01-10T01:38:36;6.47;;;5.93;;
4821;SDS011;2425;47.794;13.068;2024-01-10T01:41:04;5.70;;;5.20;;
4821;SDS011;2425;47.794;13.068;2024-01-10T01:43:32;6.93;;;5.60;;
4821;SDS011;2425;47.794;13.068;2024-01-10T01:45:59;6.07;;;5.57;;
4821;SDS011;2425;47.794;13.068;2024-01-10T01:48:26;6.20;;;5.60;;
4821;SDS011;2425;47.794;13.068;2024-01-10T01:50:54;6.90;;;6.23;;
4821;SDS011;2425;47.794;13.068;2024-01-10T01:53:23;5.90;;;5.40;;
4821;SDS011;2425;47.794;13.068;2024-01-10T01:55:50;6.10;;;5.50;;
4821;SDS011;2425;47.794;13.068;2024-01-10T01:58:18;6.90;;;6.20;;
4821;SDS011;2425;47.794;13.068;2024-01-10T02:00:46;6.10;;;5.67;;
4821;SDS011;2425;47.794;13.068;2024-01-10T02:03:13;6.30;;;5.73;;
4821;SDS011;2425;47.794;13.068;2024-01-10T02:05:38;6.10;;;5.60;;
4821;SDS011;2425;47.794;13.068;2024-01-10T02:08:05;6.17;;;5.67;;
4821;SDS011;2425;47.794;13.068;2024-01-10T02:10:32;5.70;;;5.17;;
4821;SDS011;2425;47.794;13.068;2024-01-10T02:12:59;5.67;;;5.17;;
4821;SDS011;2425;47.794;13.068;2024-01-10T02:15:27;6.70;;;5.30;;
4821;SDS011;2425;47.794;13.068;2024-01-10T02:17:54;5.87;;;5.30;;
4821;SDS011;2425;47.794;13.068;2024-01-10T02:20:21;5.97;;;5.47;;
4821;SDS011;2425;47.794;13.068;2024-01-10T02:22:48;5.83;;;5.27;;
4821;SDS011;2425;47.794;13.068;2024-01-10T02:25:17;6.30;;;5.20;;
4821;SDS011;2425;47.794;13.068;2024-01-10T02:27:44;6.17;;;5.57;;
4821;SDS011;2425;47.794;13.068;2024-01-10T02:30:11;6.80;;;5.10;;
4821;SDS011;2425;47.794;13.068;2024-01-10T02:32:37;6.30;;;5.50;;
4821;SDS011;2425;47.794;13.068;2024-01-10T02:35:05;5.23;;;4.83;;
4821;SDS011;2425;47.794;13.068;2024-01-10T02:37:33;6.47;;;5.87;;
4821;SDS011;2425;47.794;13.068;2024-01-10T02:40:00;5.67;;;5.17;;
4821;SDS011;2425;47.794;13.068;2024-01-10T02:42:28;5.40;;;4.90;;
4821;SDS011;2425;47.794;13.068;2024-01-10T02:44:55;5.70;;;5.20;;
4821;SDS011;2425;47.794;13.068;2024-01-10T02:47:22;5.70;;;5.20;;
4821;SDS011;2425;47.794;13.068;2024-01-10T02:49:49;5.70;;;5.10;;
4821;SDS011;2425;47.794;13.068;2024-01-10T02:52:16;5.80;;;5.30;;
4821;SDS011;2425;47.794;13.068;2024-01-10T02:54:44;5.63;;;5.13;;
4821;SDS011;2425;47.794;13.068;2024-01-10T02:57:11;5.90;;;5.30;;
4821;SDS011;2425;47.794;13.068;2024-01-10T02:59:39;6.23;;;5.60;;
4821;SDS011;2425;47.794;13.068;2024-01-10T03:02:06;5.77;;;5.27;;
4821;SDS011;2425;47.794;13.068;2024-01-10T03:04:32;5.87;;;5.20;;
4821;SDS011;2425;47.794;13.068;2024-01-10T03:06:59;5.90;;;5.40;;
4821;SDS011;2425;47.794;13.068;2024-01-10T03:09:26;5.23;;;4.80;;
4821;SDS011;2425;47.794;13.068;2024-01-10T03:11:52;5.40;;;4.93;;
4821;SDS011;2425;47.794;13.068;2024-01-10T03:14:19;5.37;;;4.97;;
4821;SDS011;2425;47.794;13.068;2024-01-10T03:16:48;5.00;;;4.60;;
4821;SDS011;2425;47.794;13.068;2024-01-10T03:19:15;5.13;;;4.73;;
4821;SDS011;2425;47.794;13.068;2024-01-10T03:21:41;5.30;;;4.80;;
4821;SDS011;2425;47.794;13.068;2024-01-10T03:24:07;5.03;;;4.63;;
4821;SDS011;2425;47.794;13.068;2024-01-10T03:26:34;5.67;;;5.17;;
4821;SDS011;2425;47.794;13.068;2024-01-10T03:29:01;5.07;;;4.67;;
4821;SDS011;2425;47.794;13.068;2024-01-10T03:31:28;5.80;;;5.17;;
4821;SDS011;2425;47.794;13.068;2024-01-10T03:33:57;4.63;;;4.33;;
4821;SDS011;2425;47.794;13.068;2024-01-10T03:36:24;6.40;;;5.77;;
4821;SDS011;2425;47.794;13.068;2024-01-10T03:38:51;5.07;;;4.67;;
4821;SDS011;2425;47.794;13.068;2024-01-10T03:41:17;5.60;;;5.10;;
4821;SDS011;2425;47.794;13.068;2024-01-10T03:43:45;6.03;;;5.43;;
4821;SDS011;2425;47.794;13.068;2024-01-10T03:46:12;5.60;;;5.20;;
4821;SDS011;2425;47.794;13.068;2024-01-10T03:48:39;5.37;;;4.97;;
4821;SDS011;2425;47.794;13.068;2024-01-10T03:51:14;5.77;;;5.17;;
4821;SDS011;2425;47.794;13.068;2024-01-10T03:53:41;5.57;;;5.03;;
4821;SDS011;2425;47.794;13.068;2024-01-10T03:56:08;5.30;;;4.90;;
4821;SDS011;2425;47.794;13.068;2024-01-10T03:58:35;5.60;;;5.03;;
4821;SDS011;2425;47.794;13.068;2024-01-10T04:01:03;5.10;;;4.67;;
4821;SDS011;2425;47.794;13.068;2024-01-10T04:03:30;5.47;;;5.00;;
4821;SDS011;2425;47.794;13.068;2024-01-10T04:05:57;5.63;;;5.13;;
4821;SDS011;2425;47.794;13.068;2024-01-10T04:08:26;5.40;;;4.90;;
4821;SDS011;2425;47.794;13.068;2024-01-10T04:10:52;5.50;;;5.00;;
4821;SDS011;2425;47.794;13.068;2024-01-10T04:13:19;5.43;;;4.93;;
4821;SDS011;2425;47.794;13.068;2024-01-10T04:15:46;7.13;;;5.53;;
4821;SDS011;2425;47.794;13.068;2024-01-10T04:18:12;5.30;;;4.80;;
4821;SDS011;2425;47.794;13.068;2024-01-10T04:20:39;9.33;;;5.50;;
4821;SDS011;2425;47.794;13.068;2024-01-10T04:23:07;5.30;;;4.80;;
4821;SDS011;2425;47.794;13.068;2024-01-10T04:25:35;5.00;;;4.60;;
4821;SDS011;2425;47.794;13.068;2024-01-10T04:28:02;5.43;;;5.03;;
4821;SDS011;2425;47.794;13.068;2024-01-10T04:30:29;5.53;;;4.90;;
4821;SDS011;2425;47.794;13.068;2024-01-10T04:32:55;5.90;;;5.40;;
4821;SDS011;2425;47.794;13.068;2024-01-10T04:35:22;4.73;;;4.30;;
4821;SDS011;2425;47.794;13.068;2024-01-10T04:37:49;5.30;;;4.80;;
4821;SDS011;2425;47.794;13.068;2024-01-10T04:40:16;5.30;;;4.80;;
4821;SDS011;2425;47.794;13.068;2024-01-10T04:42:44;5.03;;;4.70;;
4821;SDS011;2425;47.794;13.068;2024-01-10T04:45:11;5.20;;;4.80;;
4821;SDS011;2425;47.794;13.068;2024-01-10T04:47:38;5.30;;;4.90;;
4821;SDS011;2425;47.794;13.068;2024-01-10T04:50:05;4.80;;;4.40;;
4821;SDS011;2425;47.794;13.068;2024-01-10T04:52:33;5.03;;;4.63;;
4821;SDS011;2425;47.794;13.068;2024-01-10T04:54:59;5.03;;;4.63;;
4821;SDS011;2425;47.794;13.068;2024-01-10T04:57:27;4.50;;;4.13;;
4821;SDS011;2425;47.794;13.068;2024-01-10T04:59:55;4.30;;;4.00;;
4821;SDS011;2425;47.794;13.068;2024-01-10T05:02:22;5.37;;;4.87;;
4821;SDS011;2425;47.794;13.068;2024-01-10T05:04:49;5.83;;;5.20;;
4821;SDS011;2425;47.794;13.068;2024-01-10T05:07:15;5.63;;;5.13;;
4821;SDS011;2425;47.794;13.068;2024-01-10T05:09:42;6.20;;;5.23;;
4821;SDS011;2425;47.794;13.068;2024-01-10T05:12:09;6.20;;;5.50;;
4821;SDS011;2425;47.794;13.068;2024-01-10T05:14:36;6.70;;;5.93;;
4821;SDS011;2425;47.794;13.068;2024-01-10T05:17:04;6.13;;;5.33;;
4821;SDS011;2425;47.794;13.068;2024-01-10T05:19:31;5.97;;;5.37;;
4821;SDS011;2425;47.794;13.068;2024-01-10T05:21:57;6.07;;;5.47;;
4821;SDS011;2425;47.794;13.068;2024-01-10T05:24:24;5.47;;;4.90;;
4821;SDS011;2425;47.794;13.068;2024-01-10T05:26:51;6.43;;;5.73;;
4821;SDS011;2425;47.794;13.068;2024-01-10T05:29:18;5.93;;;5.30;;
4821;SDS011;2425;47.794;13.068;2024-01-10T05:31:47;5.57;;;5.17;;
4821;SDS011;2425;47.794;13.068;2024-01-10T05:34:15;5.60;;;5.10;;
4821;SDS011;2425;47.794;13.068;2024-01-10T05:36:42;5.70;;;5.20;;
4821;SDS011;2425;47.794;13.068;2024-01-10T05:39:09;6.70;;;5.70;;
4821;SDS011;2425;47.794;13.068;2024-01-10T05:41:36;5.67;;;5.17;;
4821;SDS011;2425;47.794;13.068;2024-01-10T05:44:04;6.13;;;4.90;;
4821;SDS011;2425;47.794;13.068;2024-01-10T05:46:31;5.63;;;5.13;;
4821;SDS011;2425;47.794;13.068;2024-01-10T05:48:58;5.70;;;5.20;;
4821;SDS011;2425;47.794;13.068;2024-01-10T05:51:26;6.40;;;5.80;;
4821;SDS011;2425;47.794;13.068;2024-01-10T05:53:53;5.03;;;4.63;;
4821;SDS011;2425;47.794;13.068;2024-01-10T05:56:20;6.47;;;5.70;;
4821;SDS011;2425;47.794;13.068;2024-01-10T05:58:47;10.50;;;5.00;;
4821;SDS011;2425;47.794;13.068;2024-01-10T06:01:17;6.00;;;5.47;;
4821;SDS011;2425;47.794;13.068;2024-01-10T06:03:43;5.77;;;5.30;;
4821;SDS011;2425;47.794;13.068;2024-01-10T06:06:10;6.27;;;5.67;;
4821;SDS011;2425;47.794;13.068;2024-01-10T06:08:38;5.27;;;4.83;;
4821;SDS011;2425;47.794;13.068;2024-01-10T06:11:05;6.10;;;5.50;;
4821;SDS011;2425;47.794;13.068;2024-01-10T06:13:34;5.70;;;5.20;;
4821;SDS011;2425;47.794;13.068;2024-01-10T06:16:00;6.50;;;5.63;;
4821;SDS011;2425;47.794;13.068;2024-01-10T06:18:27;6.50;;;5.07;;
4821;SDS011;2425;47.794;13.068;2024-01-10T06:20:54;6.07;;;5.47;;
4821;SDS011;2425;47.794;13.068;2024-01-10T06:23:21;6.23;;;5.63;;
4821;SDS011;2425;47.794;13.068;2024-01-10T06:25:49;6.43;;;5.73;;
4821;SDS011;2425;47.794;13.068;2024-01-10T06:28:16;6.63;;;6.00;;
4821;SDS011;2425;47.794;13.068;2024-01-10T06:30:42;6.20;;;5.60;;
4821;SDS011;2425;47.794;13.068;2024-01-10T06:33:09;5.97;;;5.47;;
4821;SDS011;2425;47.794;13.068;2024-01-10T06:35:36;6.20;;;5.53;;
4821;SDS011;2425;47.794;13.068;2024-01-10T06:38:03;5.70;;;5.20;;
4821;SDS011;2425;47.794;13.068;2024-01-10T06:40:30;6.23;;;5.50;;
4821;SDS011;2425;47.794;13.068;2024-01-10T06:42:58;6.03;;;5.53;;
4821;SDS011;2425;47.794;13.068;2024-01-10T06:45:24;5.77;;;5.17;;
4821;SDS011;2425;47.794;13.068;2024-01-10T06:47:52;6.83;;;5.70;;
4821;SDS011;2425;47.794;13.068;2024-01-10T06:50:19;6.50;;;5.90;;
4821;SDS011;2425;47.794;13.068;2024-01-10T06:52:46;6.03;;;5.43;;
4821;SDS011;2425;47.794;13.068;2024-01-10T06:55:13;6.30;;;5.17;;
4821;SDS011;2425;47.794;13.068;2024-01-10T06:57:40;5.30;;;4.80;;
4821;SDS011;2425;47.794;13.068;2024-01-10T07:00:09;5.63;;;5.13;;
4821;SDS011;2425;47.794;13.068;2024-01-10T07:02:37;5.63;;;5.13;;
4821;SDS011;2425;47.794;13.068;2024-01-10T07:05:06;5.27;;;4.83;;
4821;SDS011;2425;47.794;13.068;2024-01-10T07:07:34;5.83;;;5.20;;
4821;SDS011;2425;47.794;13.068;2024-01-10T07:10:01;5.67;;;5.17;;
4821;SDS011;2425;47.794;13.068;2024-01-10T07:12:30;5.57;;;5.07;;
4821;SDS011;2425;47.794;13.068;2024-01-10T07:14:56;5.70;;;5.20;;
4821;SDS011;2425;47.794;13.068;2024-01-10T07:17:24;5.10;;;4.60;;
4821;SDS011;2425;47.794;13.068;2024-01-10T07:19:51;5.10;;;4.60;;
4821;SDS011;2425;47.794;13.068;2024-01-10T07:22:18;5.97;;;5.40;;
4821;SDS011;2425;47.794;13.068;2024-01-10T07:24:44;19.67;;;5.00;;
4821;SDS011;2425;47.794;13.068;2024-01-10T07:27:11;5.23;;;4.80;;
4821;SDS011;2425;47.794;13.068;2024-01-10T07:29:39;5.80;;;5.30;;
4821;SDS011;2425;47.794;13.068;2024-01-10T07:32:06;4.20;;;3.90;;
4821;SDS011;2425;47.794;13.068;2024-01-10T07:34:37;8.50;;;6.87;;
4821;SDS011;2425;47.794;13.068;2024-01-10T07:37:04;5.77;;;5.17;;
4821;SDS011;2425;47.794;13.068;2024-01-10T07:39:31;6.37;;;5.67;;
4821;SDS011;2425;47.794;13.068;2024-01-10T07:41:58;10.67;;;9.20;;
4821;SDS011;2425;47.794;13.068;2024-01-10T07:44:27;8.30;;;6.47;;
4821;SDS011;2425;47.794;13.068;2024-01-10T07:46:54;9.47;;;7.40;;
4821;SDS011;2425;47.794;13.068;2024-01-10T07:49:21;8.90;;;7.40;;
4821;SDS011;2425;47.794;13.068;2024-01-10T07:51:50;13.60;;;10.57;;
4821;SDS011;2425;47.794;13.068;2024-01-10T07:54:17;8.27;;;7.07;;
4821;SDS011;2425;47.794;13.068;2024-01-10T07:56:43;10.10;;;7.77;;
4821;SDS011;2425;47.794;13.068;2024-01-10T07:59:10;15.77;;;13.20;;
4821;SDS011;2425;47.794;13.068;2024-01-10T08:01:39;15.40;;;12.80;;
4821;SDS011;2425;47.794;13.068;2024-01-10T08:04:06;13.13;;;11.20;;
4821;SDS011;2425;47.794;13.068;2024-01-10T08:06:33;15.10;;;12.90;;
4821;SDS011;2425;47.794;13.068;2024-01-10T08:09:02;13.90;;;11.90;;
4821;SDS011;2425;47.794;13.068;2024-01-10T08:11:29;12.73;;;11.33;;
4821;SDS011;2425;47.794;13.068;2024-01-10T08:13:56;13.27;;;11.87;;
4821;SDS011;2425;47.794;13.068;2024-01-10T08:16:23;13.00;;;11.43;;
4821;SDS011;2425;47.794;13.068;2024-01-10T08:18:49;14.73;;;11.37;;
4821;SDS011;2425;47.794;13.068;2024-01-10T08:21:16;14.80;;;10.80;;
4821;SDS011;2425;47.794;13.068;2024-01-10T08:23:44;17.00;;;10.97;;
4821;SDS011;2425;47.794;13.068;2024-01-10T08:26:12;14.10;;;10.60;;
4821;SDS011;2425;47.794;13.068;2024-01-10T08:28:39;18.90;;;10.47;;
4821;SDS011;2425;47.794;13.068;2024-01-10T08:31:07;11.40;;;9.73;;
4821;SDS011;2425;47.794;13.068;2024-01-10T08:33:35;12.47;;;10.30;;
4821;SDS011;2425;47.794;13.068;2024-01-10T08:36:01;12.00;;;9.70;;
4821;SDS011;2425;47.794;13.068;2024-01-10T08:38:28;10.93;;;9.80;;
4821;SDS011;2425;47.794;13.068;2024-01-10T08:40:55;28.97;;;22.60;;
4821;SDS011;2425;47.794;13.068;2024-01-10T08:43:24;17.80;;;13.73;;
4821;SDS011;2425;47.794;13.068;2024-01-10T08:45:50;13.87;;;12.10;;
4821;SDS011;2425;47.794;13.068;2024-01-10T08:48:17;11.40;;;8.90;;
4821;SDS011;2425;47.794;13.068;2024-01-10T08:50:44;9.10;;;8.20;;
4821;SDS011;2425;47.794;13.068;2024-01-10T08:53:11;12.30;;;9.87;;
4821;SDS011;2425;47.794;13.068;2024-01-10T08:55:38;13.10;;;9.53;;
4821;SDS011;2425;47.794;13.068;2024-01-10T08:58:05;16.20;;;9.30;;
4821;SDS011;2425;47.794;13.068;2024-01-10T09:00:34;10.53;;;9.10;;
4821;SDS011;2425;47.794;13.068;2024-01-10T09:03:02;24.80;;;10.47;;
4821;SDS011;2425;47.794;13.068;2024-01-10T09:05:31;9.97;;;8.97;;
4821;SDS011;2425;47.794;13.068;2024-01-10T09:07:58;12.20;;;9.23;;
4821;SDS011;2425;47.794;13.068;2024-01-10T09:10:25;11.30;;;9.10;;
4821;SDS011;2425;47.794;13.068;2024-01-10T09:12:53;12.03;;;8.83;;
4821;SDS011;2425;47.794;13.068;2024-01-10T09:15:20;11.13;;;8.00;;
4821;SDS011;2425;47.794;13.068;2024-01-10T09:17:48;11.37;;;8.30;;
4821;SDS011;2425;47.794;13.068;2024-01-10T09:20:17;8.90;;;8.00;;
4821;SDS011;2425;47.794;13.068;2024-01-10T09:22:45;8.40;;;7.60;;
4821;SDS011;2425;47.794;13.068;2024-01-10T09:25:12;11.83;;;8.87;;
4821;SDS011;2425;47.794;13.068;2024-01-10T09:27:39;11.37;;;8.00;;
4821;SDS011;2425;47.794;13.068;2024-01-10T09:30:07;9.70;;;8.00;;
4821;SDS011;2425;47.794;13.068;2024-01-10T09:32:34;8.80;;;7.27;;
4821;SDS011;2425;47.794;13.068;2024-01-10T09:35:02;8.03;;;7.23;;
4821;SDS011;2425;47.794;13.068;2024-01-10T09:37:29;13.73;;;8.10;;
4821;SDS011;2425;47.794;13.068;2024-01-10T09:39:56;8.70;;;7.53;;
4821;SDS011;2425;47.794;13.068;2024-01-10T09:42:23;8.93;;;8.07;;
4821;SDS011;2425;47.794;13.068;2024-01-10T09:44:50;10.80;;;8.30;;
4821;SDS011;2425;47.794;13.068;2024-01-10T09:47:18;7.87;;;7.17;;
4821;SDS011;2425;47.794;13.068;2024-01-10T09:49:46;8.70;;;7.50;;
4821;SDS011;2425;47.794;13.068;2024-01-10T09:52:16;8.80;;;7.90;;
4821;SDS011;2425;47.794;13.068;2024-01-10T09:54:50;18.27;;;7.93;;
4821;SDS011;2425;47.794;13.068;2024-01-10T09:57:20;8.40;;;7.03;;
4821;SDS011;2425;47.794;13.068;2024-01-10T09:59:48;8.73;;;7.40;;
4821;SDS011;2425;47.794;13.068;2024-01-10T10:02:16;7.67;;;7.00;;
4821;SDS011;2425;47.794;13.068;2024-01-10T10:04:44;8.37;;;7.50;;
4821;SDS011;2425;47.794;13.068;2024-01-10T10:07:24;7.63;;;6.90;;
4821;SDS011;2425;47.794;13.068;2024-01-10T10:09:51;8.70;;;7.07;;
4821;SDS011;2425;47.794;13.068;2024-01-10T10:12:18;9.80;;;7.33;;
4821;SDS011;2425;47.794;13.068;2024-01-10T10:14:45;8.27;;;7.47;;
4821;SDS011;2425;47.794;13.068;2024-01-10T10:17:15;8.10;;;7.30;;
4821;SDS011;2425;47.794;13.068;2024-01-10T10:19:42;9.90;;;7.87;;
4821;SDS011;2425;47.794;13.068;2024-01-10T10:22:09;8.43;;;7.57;;
4821;SDS011;2425;47.794;13.068;2024-01-10T10:24:38;11.70;;;8.20;;
4821;SDS011;2425;47.794;13.068;2024-01-10T10:27:07;9.50;;;7.03;;
4821;SDS011;2425;47.794;13.068;2024-01-10T10:29:35;8.27;;;7.47;;
4821;SDS011;2425;47.794;13.068;2024-01-10T10:32:03;11.07;;;7.70;;
4821;SDS011;2425;47.794;13.068;2024-01-10T10:34:31;11.53;;;7.63;;
4821;SDS011;2425;47.794;13.068;2024-01-10T10:36:58;10.70;;;7.37;;
4821;SDS011;2425;47.794;13.068;2024-01-10T10:39:25;28.83;;;21.70;;
4821;SDS011;2425;47.794;13.068;2024-01-10T10:41:53;13.43;;;9.03;;
4821;SDS011;2425;47.794;13.068;2024-01-10T10:44:23;8.80;;;7.90;;
4821;SDS011;2425;47.794;13.068;2024-01-10T10:46:52;14.80;;;8.57;;
4821;SDS011;2425;47.794;13.068;2024-01-10T10:49:19;9.90;;;7.67;;
4821;SDS011;2425;47.794;13.068;2024-01-10T10:51:50;16.00;;;8.77;;
4821;SDS011;2425;47.794;13.068;2024-01-10T10:54:16;18.00;;;11.50;;
4821;SDS011;2425;47.794;13.068;2024-01-10T10:56:44;36.07;;;27.93;;
4821;SDS011;2425;47.794;13.068;2024-01-10T10:59:13;11.90;;;10.00;;
4821;SDS011;2425;47.794;13.068;2024-01-10T11:01:41;15.63;;;8.80;;
4821;SDS011;2425;47.794;13.068;2024-01-10T11:04:09;15.47;;;10.17;;
4821;SDS011;2425;47.794;13.068;2024-01-10T11:06:37;17.33;;;9.73;;
4821;SDS011;2425;47.794;13.068;2024-01-10T11:09:05;13.40;;;9.33;;
4821;SDS011;2425;47.794;13.068;2024-01-10T11:11:53;13.17;;;9.43;;
4821;SDS011;2425;47.794;13.068;2024-01-10T11:14:36;10.87;;;9.10;;
4821;SDS011;2425;47.794;13.068;2024-01-10T11:17:15;9.60;;;8.50;;
4821;SDS011;2425;47.794;13.068;2024-01-10T11:19:58;10.80;;;8.77;;
4821;SDS011;2425;47.794;13.068;2024-01-10T11:22:50;13.70;;;8.20;;
4821;SDS011;2425;47.794;13.068;2024-01-10T11:25:25;11.37;;;8.70;;
4821;SDS011;2425;47.794;13.068;2024-01-10T11:27:54;9.90;;;8.70;;
4821;SDS011;2425;47.794;13.068;2024-01-10T11:30:31;11.77;;;8.20;;
4821;SDS011;2425;47.794;13.068;2024-01-10T11:33:00;11.00;;;8.57;;
4821;SDS011;2425;47.794;13.068;2024-01-10T11:35:28;12.13;;;9.30;;
4821;SDS011;2425;47.794;13.068;2024-01-10T11:37:59;24.13;;;8.43;;
4821;SDS011;2425;47.794;13.068;2024-01-10T11:43:13;11.90;;;8.57;;
4821;SDS011;2425;47.794;13.068;2024-01-10T11:45:51;14.10;;;8.97;;
4821;SDS011;2425;47.794;13.068;2024-01-10T11:48:25;11.33;;;9.53;;
4821;SDS011;2425;47.794;13.068;2024-01-10T11:50:53;9.13;;;8.13;;
4821;SDS011;2425;47.794;13.068;2024-01-10T11:53:39;9.10;;;8.13;;
4821;SDS011;2425;47.794;13.068;2024-01-10T11:56:11;21.17;;;15.90;;
4821;SDS011;2425;47.794;13.068;2024-01-10T12:01:30;19.17;;;15.40;;
4821;SDS011;2425;47.794;13.068;2024-01-10T12:03:57;19.80;;;15.77;;
4821;SDS011;2425;47.794;13.068;2024-01-10T12:06:25;17.60;;;13.87;;
4821;SDS011;2425;47.794;13.068;2024-01-10T12:08:52;19.33;;;15.27;;
4821;SDS011;2425;47.794;13.068;2024-01-10T12:11:18;18.60;;;14.93;;
4821;SDS011;2425;47.794;13.068;2024-01-10T12:13:46;18.47;;;14.30;;
4821;SDS011;2425;47.794;13.068;2024-01-10T12:16:13;16.97;;;13.90;;
4821;SDS011;2425;47.794;13.068;2024-01-10T12:18:42;20.80;;;14.40;;
4821;SDS011;2425;47.794;13.068;2024-01-10T12:21:09;18.80;;;14.10;;
4821;SDS011;2425;47.794;13.068;2024-01-10T12:23:37;18.60;;;14.20;;
4821;SDS011;2425;47.794;13.068;2024-01-10T12:26:04;22.23;;;17.20;;
4821;SDS011;2425;47.794;13.068;2024-01-10T12:28:34;28.83;;;20.50;;
4821;SDS011;2425;47.794;13.068;2024-01-10T12:31:01;32.00;;;18.97;;
4821;SDS011;2425;47.794;13.068;2024-01-10T12:33:28;27.87;;;20.20;;
4821;SDS011;2425;47.794;13.068;2024-01-10T12:36:06;23.20;;;14.37;;
4821;SDS011;2425;47.794;13.068;2024-01-10T12:38:33;20.03;;;12.60;;
4821;SDS011;2425;47.794;13.068;2024-01-10T12:41:00;18.27;;;13.70;;
4821;SDS011;2425;47.794;13.068;2024-01-10T12:43:27;31.60;;;13.57;;
4821;SDS011;2425;47.794;13.068;2024-01-10T12:46:04;22.03;;;13.30;;
4821;SDS011;2425;47.794;13.068;2024-01-10T12:48:31;20.93;;;13.40;;
4821;SDS011;2425;47.794;13.068;2024-01-10T12:51:01;17.90;;;12.30;;
4821;SDS011;2425;47.794;13.068;2024-01-10T12:53:32;21.10;;;12.17;;
4821;SDS011;2425;47.794;13.068;2024-01-10T12:56:00;23.27;;;12.50;;
4821;SDS011;2425;47.794;13.068;2024-01-10T12:58:27;22.93;;;11.73;;
4821;SDS011;2425;47.794;13.068;2024-01-10T13:00:54;17.60;;;12.10;;
4821;SDS011;2425;47.794;13.068;2024-01-10T13:03:21;22.50;;;12.90;;
4821;SDS011;2425;47.794;13.068;2024-01-10T13:05:48;16.77;;;11.40;;
4821;SDS011;2425;47.794;13.068;2024-01-10T13:08:15;18.00;;;11.80;;
4821;SDS011;2425;47.794;13.068;2024-01-10T13:10:43;24.63;;;15.87;;
4821;SDS011;2425;47.794;13.068;2024-01-10T13:13:10;15.13;;;12.00;;
4821;SDS011;2425;47.794;13.068;2024-01-10T13:15:37;17.10;;;11.60;;
4821;SDS011;2425;47.794;13.068;2024-01-10T13:18:04;21.53;;;12.20;;
4821;SDS011;2425;47.794;13.068;2024-01-10T13:20:31;14.53;;;12.30;;
4821;SDS011;2425;47.794;13.068;2024-01-10T13:22:58;15.90;;;11.77;;
4821;SDS011;2425;47.794;13.068;2024-01-10T13:25:25;21.03;;;11.80;;
4821;SDS011;2425;47.794;13.068;2024-01-10T13:27:53;14.43;;;11.17;;
4821;SDS011;2425;47.794;13.068;2024-01-10T13:30:20;16.33;;;11.77;;
4821;SDS011;2425;47.794;13.068;2024-01-10T13:32:46;13.20;;;10.97;;
4821;SDS011;2425;47.794;13.068;2024-01-10T13:35:13;23.60;;;12.10;;
4821;SDS011;2425;47.794;13.068;2024-01-10T13:37:41;13.90;;;11.20;;
4821;SDS011;2425;47.794;13.068;2024-01-10T13:40:08;17.00;;;10.77;;
4821;SDS011;2425;47.794;13.068;2024-01-10T13:42:37;12.77;;;10.07;;
4821;SDS011;2425;47.794;13.068;2024-01-10T13:45:06;17.23;;;11.20;;
4821;SDS011;2425;47.794;13.068;2024-01-10T13:47:36;16.37;;;10.83;;
4821;SDS011;2425;47.794;13.068;2024-01-10T13:50:03;12.77;;;10.87;;
4821;SDS011;2425;47.794;13.068;2024-01-10T13:52:31;12.73;;;10.90;;
4821;SDS011;2425;47.794;13.068;2024-01-10T13:54:58;12.43;;;11.00;;
4821;SDS011;2425;47.794;13.068;2024-01-10T13:57:25;15.83;;;10.50;;
4821;SDS011;2425;47.794;13.068;2024-01-10T13:59:52;12.93;;;9.63;;
4821;SDS011;2425;47.794;13.068;2024-01-10T14:02:22;11.20;;;10.00;;
4821;SDS011;2425;47.794;13.068;2024-01-10T14:04:49;12.00;;;10.30;;
4821;SDS011;2425;47.794;13.068;2024-01-10T14:07:15;17.27;;;10.23;;
4821;SDS011;2425;47.794;13.068;2024-01-10T14:09:42;13.83;;;10.20;;
4821;SDS011;2425;47.794;13.068;2024-01-10T14:12:10;13.20;;;10.40;;
4821;SDS011;2425;47.794;13.068;2024-01-10T14:14:37;12.43;;;8.47;;
4821;SDS011;2425;47.794;13.068;2024-01-10T14:17:04;14.20;;;10.20;;
4821;SDS011;2425;47.794;13.068;2024-01-10T14:19:32;13.10;;;9.10;;
4821;SDS011;2425;47.794;13.068;2024-01-10T14:21:58;12.80;;;9.77;;
4821;SDS011;2425;47.794;13.068;2024-01-10T14:24:25;14.30;;;9.10;;
4821;SDS011;2425;47.794;13.068;2024-01-10T14:26:52;18.37;;;10.73;;
4821;SDS011;2425;47.794;13.068;2024-01-10T14:29:19;19.27;;;10.27;;
4821;SDS011;2425;47.794;13.068;2024-01-10T14:31:47;27.93;;;18.70;;
4821;SDS011;2425;47.794;13.068;2024-01-10T14:34:14;16.53;;;12.40;;
4821;SDS011;2425;47.794;13.068;2024-01-10T14:36:42;20.40;;;11.97;;
4821;SDS011;2425;47.794;13.068;2024-01-10T14:39:09;19.00;;;11.93;;
4821;SDS011;2425;47.794;13.068;2024-01-10T14:41:37;19.70;;;12.40;;
4821;SDS011;2425;47.794;13.068;2024-01-10T14:44:04;13.93;;;11.40;;
4821;SDS011;2425;47.794;13.068;2024-01-10T14:46:31;16.30;;;11.80;;
4821;SDS011;2425;47.794;13.068;2024-01-10T14:48:58;12.63;;;10.27;;
4821;SDS011;2425;47.794;13.068;2024-01-10T14:51:24;19.53;;;11.37;;
4821;SDS011;2425;47.794;13.068;2024-01-10T14:53:53;18.50;;;11.00;;
4821;SDS011;2425;47.794;13.068;2024-01-10T14:56:19;15.37;;;10.43;;
4821;SDS011;2425;47.794;13.068;2024-01-10T14:58:46;19.00;;;12.47;;
4821;SDS011;2425;47.794;13.068;2024-01-10T15:01:14;12.93;;;10.60;;